Time;durP1;ratioP1;P1;durP2;ratioP2;P2;SDS_P1;SDS_P2;PMS_P1;PMS_P2;Temp;Humidity;BMP_temperature;BMP_pressure;BME280_temperature;BME280_humidity;BME280_pressure;Samples;Min_cycle;Max_cycle;Signal;HPM_P1;HPM_P2
2023/05/24 00:01:15;;;;;;;6.77;4.60;;;15.70;58.80;;;;;;5016384;28;20188;-87
2023/05/24 00:03:41;;;;;;;6.30;4.80;;;15.80;58.70;;;;;;5000935;28;20518;-86
2023/05/24 00:06:07;;;;;;;8.60;4.87;;;15.90;57.90;;;;;;5013737;28;20235;-86
2023/05/24 00:08:33;;;;;;;7.30;5.30;;;16.00;57.50;;;;;;5017415;28;20197;-87
2023/05/24 00:10:59;;;;;;;6.10;5.00;;;16.10;57.70;;;;;;5017284;28;20192;-87
2023/05/24 00:13:25;;;;;;;7.90;4.67;;;16.20;57.00;;;;;;5018335;28;20178;-86
2023/05/24 00:15:51;;;;;;;5.10;4.60;;;16.20;56.90;;;;;;5017584;28;20200;-86
2023/05/24 00:18:17;;;;;;;7.70;5.17;;;16.20;56.80;;;;;;5017874;28;20212;-86
2023/05/24 00:20:43;;;;;;;8.03;5.07;;;16.20;57.00;;;;;;5017401;28;20185;-87
2023/05/24 00:23:09;;;;;;;6.83;5.20;;;16.00;57.40;;;;;;5016842;28;20182;-87
2023/05/24 00:25:35;;;;;;;9.63;5.27;;;16.00;57.60;;;;;;5015899;28;20688;-86
2023/05/24 00:28:00;;;;;;;9.70;5.20;;;15.80;57.40;;;;;;5017012;28;20192;-86
2023/05/24 00:30:26;;;;;;;5.87;5.00;;;15.80;57.50;;;;;;5017706;28;20182;-87
2023/05/24 00:32:52;;;;;;;5.70;4.53;;;15.70;58.70;;;;;;5018501;28;20634;-85
2023/05/24 00:35:18;;;;;;;5.30;4.47;;;15.70;58.10;;;;;;5019288;28;20198;-86
2023/05/24 00:37:44;;;;;;;7.03;5.30;;;15.70;58.00;;;;;;5018137;28;20217;-87
2023/05/24 00:40:13;;;;;;;7.93;4.87;;;15.70;58.30;;;;;;5019273;28;20225;-86
2023/05/24 00:42:39;;;;;;;5.30;4.70;;;15.70;58.10;;;;;;5018044;28;20216;-87
2023/05/24 00:45:05;;;;;;;7.23;4.70;;;15.70;58.30;;;;;;5018409;28;20265;-85
2023/05/24 00:47:32;;;;;;;6.93;4.97;;;15.70;58.40;;;;;;5018294;28;20264;-86
2023/05/24 00:49:58;;;;;;;7.20;5.20;;;15.70;58.50;;;;;;5017733;28;20572;-87
2023/05/24 00:52:23;;;;;;;5.13;4.73;;;15.70;58.80;;;;;;5017121;28;20271;-87
2023/05/24 00:54:49;;;;;;;6.30;5.27;;;15.70;59.10;;;;;;5017166;28;20587;-87
2023/05/24 00:57:17;;;;;;;6.20;4.90;;;15.70;59.20;;;;;;5015838;28;20232;-85
2023/05/24 00:59:44;;;;;;;5.83;4.37;;;15.80;59.30;;;;;;5016375;28;20574;-86
2023/05/24 01:02:10;;;;;;;6.50;5.10;;;15.80;59.30;;;;;;5015155;28;20185;-85
2023/05/24 01:04:36;;;;;;;6.50;5.00;;;15.80;59.40;;;;;;5014830;28;20502;-86
2023/05/24 01:07:32;;;;;;;7.60;5.23;;;15.90;59.50;;;;;;5011066;28;20202;-86
2023/05/24 01:10:13;;;;;;;7.90;5.40;;;15.90;59.00;;;;;;4997415;28;20648;-86
2023/05/24 01:12:57;;;;;;;9.60;5.10;;;15.80;59.20;;;;;;5004079;28;20209;-86
2023/05/24 01:15:49;;;;;;;5.80;4.80;;;15.70;59.40;;;;;;4998772;28;20215;-86
2023/05/24 01:18:32;;;;;;;6.20;5.43;;;15.80;59.60;;;;;;4999658;28;20204;-86
2023/05/24 01:21:31;;;;;;;8.07;5.37;;;15.70;60.40;;;;;;5014560;28;20291;-87
2023/05/24 01:24:24;;;;;;;6.27;5.03;;;15.50;61.20;;;;;;5016738;28;20181;-85
2023/05/24 01:27:03;;;;;;;6.67;5.00;;;15.50;61.20;;;;;;5016435;28;20182;-86
2023/05/24 01:29:31;;;;;;;8.73;5.50;;;15.70;61.00;;;;;;5016144;28;20628;-86
2023/05/24 01:31:57;;;;;;;6.03;5.43;;;15.70;60.70;;;;;;5016187;28;20187;-87
2023/05/24 01:34:25;;;;;;;12.00;5.73;;;15.70;60.80;;;;;;5016411;28;20224;-86
2023/05/24 01:36:50;;;;;;;8.87;5.80;;;15.50;61.40;;;;;;5018036;28;20232;-87
2023/05/24 01:39:17;;;;;;;10.37;5.93;;;15.40;62.00;;;;;;5017123;28;20189;-87
2023/05/24 01:41:58;;;;;;;8.23;4.90;;;15.40;62.40;;;;;;5017022;28;20217;-86
2023/05/24 01:44:46;;;;;;;6.87;6.17;;;15.40;62.30;;;;;;5017008;28;20216;-86
2023/05/24 01:47:27;;;;;;;9.07;5.90;;;15.40;62.30;;;;;;5016232;28;20292;-86
2023/05/24 01:50:15;;;;;;;7.73;5.10;;;15.10;62.80;;;;;;5016561;28;20188;-87
2023/05/24 01:52:44;;;;;;;7.20;5.40;;;15.00;62.80;;;;;;5022131;28;20189;-86
2023/05/24 01:55:13;;;;;;;5.93;5.17;;;14.90;63.70;;;;;;5019308;28;20208;-86
2023/05/24 01:57:41;;;;;;;7.07;5.70;;;14.90;63.80;;;;;;5017437;28;20208;-86
2023/05/24 02:00:09;;;;;;;9.57;5.10;;;14.90;63.30;;;;;;5016410;28;20190;-86
2023/05/24 02:02:35;;;;;;;6.93;5.70;;;14.90;63.60;;;;;;5017094;28;20657;-85
2023/05/24 02:05:00;;;;;;;8.40;5.43;;;14.90;63.50;;;;;;5015629;28;20284;-85
2023/05/24 02:07:26;;;;;;;8.27;5.37;;;15.00;63.20;;;;;;5017391;28;20666;-87
2023/05/24 02:09:52;;;;;;;6.67;5.57;;;15.10;62.90;;;;;;5018088;28;20317;-88
2023/05/24 02:12:17;;;;;;;10.33;5.17;;;14.90;62.80;;;;;;5021747;28;20551;-86
2023/05/24 02:14:43;;;;;;;9.03;5.87;;;14.80;63.30;;;;;;5036604;28;20205;-86
2023/05/24 02:17:08;;;;;;;9.00;5.83;;;14.80;63.00;;;;;;5035755;28;20254;-86
2023/05/24 02:19:35;;;;;;;7.73;5.27;;;14.80;63.20;;;;;;5035141;28;20185;-87
2023/05/24 02:22:02;;;;;;;8.67;5.27;;;14.70;63.20;;;;;;5036116;28;20183;-85
2023/05/24 02:24:28;;;;;;;8.13;5.30;;;14.70;62.60;;;;;;5036046;28;20207;-87
2023/05/24 02:26:54;;;;;;;6.60;5.20;;;14.70;62.80;;;;;;5035550;28;20178;-86
2023/05/24 02:29:22;;;;;;;8.83;5.00;;;14.50;62.50;;;;;;5035867;28;20169;-86
2023/05/24 02:31:50;;;;;;;8.40;5.30;;;14.40;63.20;;;;;;5032733;28;20500;-86
2023/05/24 02:34:16;;;;;;;8.37;5.50;;;14.40;63.20;;;;;;5034843;28;20192;-87
2023/05/24 02:36:42;;;;;;;8.10;5.47;;;14.40;63.10;;;;;;5035877;28;20181;-85
2023/05/24 02:39:08;;;;;;;6.97;5.33;;;14.40;62.30;;;;;;5036129;28;20243;-86
2023/05/24 02:41:33;;;;;;;7.63;5.30;;;14.40;62.30;;;;;;5035150;28;20659;-86
2023/05/24 02:43:59;;;;;;;8.17;5.50;;;14.30;62.70;;;;;;5030891;28;20799;-84
2023/05/24 02:46:25;;;;;;;8.37;5.00;;;14.30;62.40;;;;;;5015470;28;20269;-86
2023/05/24 02:48:50;;;;;;;9.97;5.57;;;14.20;62.80;;;;;;5015042;28;20178;-86
2023/05/24 02:51:16;;;;;;;8.93;5.40;;;14.20;63.20;;;;;;5013930;28;20241;-86
2023/05/24 02:53:42;;;;;;;8.30;5.53;;;14.20;62.80;;;;;;5014598;28;20208;-86
2023/05/24 02:56:08;;;;;;;7.03;4.73;;;13.90;63.10;;;;;;5013429;28;20224;-86
2023/05/24 02:58:39;;;;;;;8.60;4.70;;;14.00;62.60;;;;;;5015205;28;20202;-86
2023/05/24 03:01:05;;;;;;;8.73;4.93;;;14.00;62.30;;;;;;5016732;28;20315;-85
2023/05/24 03:03:30;;;;;;;7.87;5.30;;;14.10;62.20;;;;;;5018072;28;20215;-87
2023/05/24 03:05:56;;;;;;;7.00;5.30;;;14.10;61.90;;;;;;5018765;28;20212;-87
2023/05/24 03:08:22;;;;;;;11.27;5.57;;;14.20;61.90;;;;;;5017550;28;20484;-86
2023/05/24 03:10:47;;;;;;;6.87;5.00;;;14.10;61.70;;;;;;5018158;28;20258;-88
2023/05/24 03:13:13;;;;;;;7.73;4.90;;;14.10;62.00;;;;;;5026951;28;20177;-86
2023/05/24 03:15:39;;;;;;;6.47;4.50;;;14.10;62.30;;;;;;5033908;28;20211;-85
2023/05/24 03:18:05;;;;;;;6.50;5.20;;;14.20;61.10;;;;;;5033645;28;20205;-86
2023/05/24 03:20:30;;;;;;;7.90;5.70;;;14.10;61.10;;;;;;5033451;28;20182;-86
2023/05/24 03:22:56;;;;;;;11.83;5.47;;;14.00;61.10;;;;;;5035947;28;20193;-86
2023/05/24 03:25:22;;;;;;;8.07;4.80;;;14.00;61.60;;;;;;5006438;28;20588;-86
2023/05/24 03:27:47;;;;;;;8.83;4.83;;;13.90;62.20;;;;;;5005193;28;20194;-86
2023/05/24 03:30:13;;;;;;;6.97;5.40;;;13.90;62.10;;;;;;5002825;28;20190;-87
2023/05/24 03:32:40;;;;;;;6.60;4.40;;;13.90;62.10;;;;;;4998675;28;20212;-87
2023/05/24 03:35:06;;;;;;;10.87;4.87;;;14.10;61.70;;;;;;5018954;28;20294;-85
2023/05/24 03:37:32;;;;;;;8.27;5.30;;;14.00;61.10;;;;;;4999924;28;20478;-86
2023/05/24 03:39:57;;;;;;;10.67;4.93;;;14.00;61.60;;;;;;5000821;28;20196;-87
2023/05/24 03:42:23;;;;;;;8.67;5.37;;;14.00;61.20;;;;;;4999192;28;20705;-86
2023/05/24 03:44:49;;;;;;;7.03;4.77;;;14.00;61.40;;;;;;5009051;28;20207;-86
2023/05/24 03:47:15;;;;;;;7.23;5.03;;;13.90;61.80;;;;;;5014050;28;20632;-86
2023/05/24 03:49:40;;;;;;;14.03;5.50;;;13.90;61.50;;;;;;5019917;28;20186;-85
2023/05/24 03:52:06;;;;;;;8.27;4.87;;;13.90;62.10;;;;;;5019519;28;20268;-88
2023/05/24 03:54:31;;;;;;;11.67;5.67;;;13.90;62.20;;;;;;5021980;28;20229;-86
2023/05/24 03:56:57;;;;;;;8.83;4.27;;;14.00;62.20;;;;;;5027494;28;20203;-85
2023/05/24 03:59:23;;;;;;;7.27;4.90;;;14.00;62.70;;;;;;5029476;28;20174;-86
2023/05/24 04:01:48;;;;;;;6.60;5.00;;;13.90;62.10;;;;;;5018935;28;20650;-85
2023/05/24 04:04:14;;;;;;;9.27;5.03;;;13.90;62.20;;;;;;5017541;28;20199;-85
2023/05/24 04:06:40;;;;;;;7.67;4.63;;;13.80;63.30;;;;;;5003754;28;20188;-86
2023/05/24 04:09:06;;;;;;;10.27;5.47;;;13.80;63.00;;;;;;5000216;28;20268;-86
2023/05/24 04:11:32;;;;;;;10.60;5.80;;;13.80;62.70;;;;;;4998934;28;20271;-87
2023/05/24 04:14:01;;;;;;;9.47;5.57;;;14.00;62.60;;;;;;5023930;28;20183;-86
2023/05/24 04:16:27;;;;;;;6.53;4.90;;;14.10;62.20;;;;;;4998560;28;20671;-86
2023/05/24 04:18:54;;;;;;;10.07;5.17;;;14.10;62.00;;;;;;5011119;28;20220;-86
2023/05/24 04:21:19;;;;;;;9.50;4.50;;;14.10;61.70;;;;;;5003792;28;20191;-85
2023/05/24 04:23:45;;;;;;;7.17;4.63;;;14.10;62.70;;;;;;5018404;28;20423;-86
2023/05/24 04:26:11;;;;;;;8.43;5.03;;;14.20;61.20;;;;;;5019064;28;20728;-86
2023/05/24 04:28:37;;;;;;;6.53;5.20;;;14.00;61.70;;;;;;5019685;28;20553;-86
2023/05/24 04:31:05;;;;;;;8.90;4.80;;;14.00;61.50;;;;;;5018835;28;20186;-85
2023/05/24 04:33:32;;;;;;;10.53;5.13;;;13.90;61.90;;;;;;5009729;28;20190;-86
2023/05/24 04:35:59;;;;;;;6.47;5.07;;;13.90;62.30;;;;;;5003048;28;20244;-86
2023/05/24 04:38:28;;;;;;;9.30;4.77;;;13.90;61.90;;;;;;5016511;28;20213;-86
2023/05/24 04:40:55;;;;;;;8.30;5.30;;;13.80;62.30;;;;;;5015997;28;20194;-86
2023/05/24 04:43:21;;;;;;;11.00;4.83;;;13.90;61.80;;;;;;5017003;28;20167;-86
2023/05/24 04:45:47;;;;;;;8.77;5.13;;;13.90;61.90;;;;;;5019812;28;20201;-85
2023/05/24 04:48:14;;;;;;;8.53;5.03;;;13.80;62.20;;;;;;5020903;28;20206;-85
2023/05/24 04:50:39;;;;;;;9.87;5.30;;;13.80;62.10;;;;;;5015938;28;20245;-84
2023/05/24 04:53:05;;;;;;;8.83;5.00;;;13.80;62.00;;;;;;5021221;28;20189;-85
2023/05/24 04:55:31;;;;;;;14.37;5.10;;;13.90;62.10;;;;;;5020660;28;20199;-85
2023/05/24 04:57:57;;;;;;;7.97;4.90;;;13.80;61.90;;;;;;5022060;28;20194;-85
2023/05/24 05:00:22;;;;;;;8.37;5.20;;;13.70;62.90;;;;;;5021309;28;20216;-83
2023/05/24 05:02:48;;;;;;;6.83;4.80;;;13.70;63.00;;;;;;5022788;28;20229;-84
2023/05/24 05:05:14;;;;;;;7.67;5.07;;;13.70;63.20;;;;;;5025313;28;20201;-87
2023/05/24 05:07:40;;;;;;;10.67;4.97;;;13.80;62.70;;;;;;5020150;28;20175;-85
2023/05/24 05:10:07;;;;;;;7.17;5.07;;;13.80;62.70;;;;;;5012570;28;20217;-86
2023/05/24 05:12:32;;;;;;;9.47;5.87;;;13.90;62.90;;;;;;5030137;28;20189;-85
2023/05/24 05:14:58;;;;;;;9.90;4.80;;;13.90;62.60;;;;;;5022068;28;20560;-85
2023/05/24 05:17:23;;;;;;;10.53;5.60;;;14.00;62.60;;;;;;5021692;28;20278;-85
2023/05/24 05:19:49;;;;;;;8.70;5.37;;;14.00;62.50;;;;;;5020801;28;20198;-84
2023/05/24 05:22:15;;;;;;;10.97;5.67;;;13.90;62.50;;;;;;5021258;28;20182;-85
2023/05/24 05:24:40;;;;;;;11.57;6.73;;;13.90;62.50;;;;;;5021374;28;20287;-85
2023/05/24 05:27:06;;;;;;;7.87;5.40;;;13.90;63.40;;;;;;5021292;28;20189;-85
2023/05/24 05:29:32;;;;;;;11.20;6.10;;;13.80;63.20;;;;;;5015195;28;20187;-84
2023/05/24 05:31:57;;;;;;;12.10;5.50;;;13.90;63.40;;;;;;5018706;28;20194;-85
2023/05/24 05:34:23;;;;;;;9.00;5.20;;;13.90;63.40;;;;;;5018746;28;20235;-86
2023/05/24 05:36:48;;;;;;;7.53;5.10;;;14.00;63.00;;;;;;5021573;28;20184;-84
2023/05/24 05:39:14;;;;;;;9.50;5.23;;;14.00;62.90;;;;;;5004154;28;20194;-85
2023/05/24 05:41:44;;;;;;;10.23;6.00;;;13.90;63.70;;;;;;4998290;28;20194;-84
2023/05/24 05:44:11;;;;;;;8.83;5.40;;;13.80;63.70;;;;;;4998145;28;20267;-85
2023/05/24 05:46:38;;;;;;;8.73;5.13;;;13.80;64.00;;;;;;5012551;28;20289;-84
2023/05/24 05:49:04;;;;;;;11.17;5.33;;;13.90;63.80;;;;;;5015800;28;20201;-85
2023/05/24 05:51:30;;;;;;;9.80;5.00;;;13.80;63.60;;;;;;5015943;28;20687;-84
2023/05/24 05:53:56;;;;;;;8.77;5.37;;;14.00;63.50;;;;;;5018365;28;20213;-85
2023/05/24 05:56:22;;;;;;;9.53;5.30;;;14.00;63.20;;;;;;5017230;28;20203;-86
2023/05/24 05:58:47;;;;;;;10.13;5.33;;;14.10;62.60;;;;;;5005974;28;20296;-85
2023/05/24 06:01:14;;;;;;;13.27;5.40;;;14.10;62.90;;;;;;5008745;28;20186;-86
2023/05/24 06:03:40;;;;;;;13.90;5.30;;;14.10;64.70;;;;;;5014810;28;20183;-85
2023/05/24 06:06:05;;;;;;;6.93;5.50;;;14.20;63.40;;;;;;5015332;28;20197;-85
2023/05/24 06:08:33;;;;;;;9.90;5.30;;;14.30;63.10;;;;;;5014278;28;20184;-86
2023/05/24 06:11:00;;;;;;;10.57;5.37;;;14.00;63.50;;;;;;5014040;28;20177;-84
2023/05/24 06:13:27;;;;;;;11.97;4.90;;;14.10;63.90;;;;;;5030718;28;20193;-84
2023/05/24 06:15:53;;;;;;;10.57;5.57;;;14.10;64.30;;;;;;5034079;28;20371;-85
2023/05/24 06:18:19;;;;;;;9.30;5.83;;;14.10;64.70;;;;;;5020648;28;20225;-85
2023/05/24 06:20:45;;;;;;;13.33;5.87;;;13.90;65.70;;;;;;4994745;28;20175;-85
2023/05/24 06:23:11;;;;;;;12.77;5.87;;;13.70;65.30;;;;;;4996385;28;20205;-86
2023/05/24 06:25:37;;;;;;;14.33;5.90;;;13.50;65.50;;;;;;4995606;28;20213;-86
2023/05/24 06:28:03;;;;;;;12.00;5.83;;;13.50;65.70;;;;;;4996949;28;20266;-85
2023/05/24 06:30:29;;;;;;;7.40;5.90;;;13.50;65.70;;;;;;4994702;28;20190;-87
2023/05/24 06:32:55;;;;;;;8.90;5.57;;;13.60;65.80;;;;;;4994325;28;20209;-86
2023/05/24 06:35:21;;;;;;;12.10;5.60;;;13.60;66.00;;;;;;4993626;28;20691;-85
2023/05/24 06:37:47;;;;;;;10.10;5.27;;;13.60;65.90;;;;;;4993938;28;20212;-86
2023/05/24 06:40:12;;;;;;;12.83;6.13;;;13.60;65.20;;;;;;4994372;28;20226;-85
2023/05/24 06:42:38;;;;;;;10.47;5.30;;;13.60;65.50;;;;;;5011665;28;20201;-86
2023/05/24 06:45:04;;;;;;;16.50;6.40;;;13.70;66.00;;;;;;5014606;28;20241;-85
2023/05/24 06:47:30;;;;;;;11.10;5.13;;;13.80;64.70;;;;;;5015295;28;20647;-86
2023/05/24 06:49:56;;;;;;;11.07;5.70;;;13.80;64.30;;;;;;4995667;28;20203;-86
2023/05/24 06:52:22;;;;;;;9.13;5.53;;;13.90;64.20;;;;;;5002808;28;20182;-86
2023/05/24 06:54:48;;;;;;;9.77;5.90;;;14.00;63.90;;;;;;5015331;28;20229;-86
2023/05/24 06:57:14;;;;;;;11.83;5.87;;;14.00;63.20;;;;;;5015422;28;20194;-86
2023/05/24 06:59:40;;;;;;;11.93;5.57;;;14.00;62.50;;;;;;5016728;28;20186;-86
2023/05/24 07:02:05;;;;;;;9.60;5.40;;;13.90;62.90;;;;;;4995569;28;20174;-86
2023/05/24 07:04:31;;;;;;;11.00;6.03;;;13.90;63.00;;;;;;4994842;28;20194;-85
2023/05/24 07:06:57;;;;;;;10.97;5.30;;;13.70;63.90;;;;;;4996771;28;20190;-87
2023/05/24 07:09:22;;;;;;;7.53;5.53;;;14.00;63.80;;;;;;5000670;28;20372;-86
2023/05/24 07:11:48;;;;;;;11.30;5.80;;;14.10;61.90;;;;;;5003779;28;20196;-86
2023/05/24 07:14:14;;;;;;;8.23;4.93;;;14.20;60.70;;;;;;5039351;28;20207;-86
2023/05/24 07:16:39;;;;;;;12.47;5.90;;;14.10;60.60;;;;;;5039288;28;20192;-85
2023/05/24 07:19:06;;;;;;;12.67;5.87;;;14.00;60.70;;;;;;5040157;28;20261;-85
2023/05/24 07:21:31;;;;;;;7.33;5.30;;;14.00;60.60;;;;;;5011818;28;20498;-86
2023/05/24 07:23:57;;;;;;;9.23;5.20;;;14.00;61.20;;;;;;4999955;28;20189;-87
2023/05/24 07:26:23;;;;;;;14.33;5.97;;;14.10;59.80;;;;;;5000543;28;20208;-86
2023/05/24 07:28:48;;;;;;;12.20;5.67;;;14.20;60.00;;;;;;5011604;28;20183;-86
2023/05/24 07:31:15;;;;;;;13.03;5.57;;;14.30;60.00;;;;;;4997476;28;20179;-86
2023/05/24 07:33:40;;;;;;;13.23;5.70;;;14.00;61.40;;;;;;4998082;28;20254;-86
2023/05/24 07:36:07;;;;;;;7.90;5.00;;;14.10;61.30;;;;;;4997375;28;20213;-85
2023/05/24 07:38:34;;;;;;;10.70;5.30;;;14.20;61.20;;;;;;5009898;28;20404;-86
2023/05/24 07:41:02;;;;;;;41.50;8.40;;;14.30;60.30;;;;;;5016142;28;20729;-87
2023/05/24 07:43:28;;;;;;;9.80;5.33;;;14.50;59.50;;;;;;5011096;28;20194;-86
2023/05/24 07:45:53;;;;;;;14.07;5.27;;;14.70;59.00;;;;;;5018221;28;20292;-86
2023/05/24 07:48:20;;;;;;;13.93;5.53;;;14.60;57.50;;;;;;5019054;28;20598;-86
2023/05/24 07:50:48;;;;;;;13.53;5.20;;;14.50;57.40;;;;;;5018534;28;20286;-86
2023/05/24 07:53:14;;;;;;;10.33;5.20;;;14.40;57.70;;;;;;5019859;28;20267;-87
2023/05/24 07:55:40;;;;;;;11.87;5.30;;;14.30;57.80;;;;;;5019861;28;20316;-86
2023/05/24 07:58:05;;;;;;;9.17;5.13;;;14.30;57.10;;;;;;5019387;28;20201;-85
2023/05/24 08:00:32;;;;;;;8.93;4.97;;;14.30;56.20;;;;;;5018245;28;20258;-85
2023/05/24 08:02:58;;;;;;;9.33;5.37;;;14.20;56.50;;;;;;5016812;28;20457;-86
2023/05/24 08:05:24;;;;;;;12.60;4.83;;;14.20;56.90;;;;;;5007008;28;20296;-85
2023/05/24 08:07:51;;;;;;;9.40;5.13;;;14.50;56.30;;;;;;4998935;28;20203;-85
2023/05/24 08:10:17;;;;;;;11.27;5.00;;;14.50;55.90;;;;;;4998054;28;20500;-85
2023/05/24 08:12:43;;;;;;;15.63;5.23;;;14.70;56.30;;;;;;5006566;28;20182;-86
2023/05/24 08:15:09;;;;;;;10.20;5.17;;;15.00;55.50;;;;;;4999645;28;20726;-87
2023/05/24 08:17:35;;;;;;;17.23;5.30;;;15.10;53.70;;;;;;5005487;28;20195;-85
2023/05/24 08:20:05;;;;;;;15.13;5.10;;;15.20;50.80;;;;;;5022240;28;20181;-85
2023/05/24 08:22:32;;;;;;;9.63;4.47;;;15.10;49.40;;;;;;5020625;28;20174;-85
2023/05/24 08:24:58;;;;;;;10.30;4.30;;;14.90;51.20;;;;;;5020439;28;20214;-85
2023/05/24 08:27:23;;;;;;;13.83;4.43;;;14.90;53.00;;;;;;5018744;28;20200;-84
2023/05/24 08:29:49;;;;;;;9.30;4.80;;;14.90;53.10;;;;;;5018655;28;20368;-85
2023/05/24 08:32:15;;;;;;;10.30;4.77;;;14.90;51.70;;;;;;5016681;28;20475;-86
2023/05/24 08:34:40;;;;;;;10.63;4.57;;;14.90;52.90;;;;;;5017111;28;20215;-85
2023/05/24 08:37:06;;;;;;;10.53;4.67;;;14.90;52.40;;;;;;5017372;28;20242;-87
2023/05/24 08:39:32;;;;;;;12.67;5.07;;;14.90;52.60;;;;;;5002340;28;20190;-86
2023/05/24 08:41:59;;;;;;;13.03;5.30;;;15.20;52.20;;;;;;5010058;28;20181;-85
2023/05/24 08:44:25;;;;;;;10.00;4.80;;;15.30;52.70;;;;;;5017394;28;20604;-85
2023/05/24 08:46:52;;;;;;;8.50;4.60;;;15.50;51.80;;;;;;5017410;28;20280;-85
2023/05/24 08:49:18;;;;;;;9.50;4.63;;;15.90;50.50;;;;;;5003206;28;20580;-87
2023/05/24 08:51:44;;;;;;;7.27;5.07;;;16.10;46.80;;;;;;4997750;28;20178;-87
2023/05/24 08:54:13;;;;;;;8.80;4.43;;;16.10;47.00;;;;;;4996433;28;20205;-85
2023/05/24 08:56:40;;;;;;;9.33;5.13;;;16.30;47.10;;;;;;4996906;28;20240;-86
2023/05/24 08:59:07;;;;;;;13.10;5.87;;;16.70;45.90;;;;;;4994405;28;20234;-85
2023/05/24 09:01:36;;;;;;;10.07;5.00;;;16.70;45.40;;;;;;4996290;28;20186;-86
2023/05/24 09:04:03;;;;;;;12.50;5.13;;;16.80;45.70;;;;;;4995470;28;20174;-86
2023/05/24 09:06:29;;;;;;;13.00;4.93;;;16.80;45.40;;;;;;4998244;28;20271;-86
2023/05/24 09:08:57;;;;;;;8.73;5.07;;;16.80;46.00;;;;;;5007404;28;20186;-87
2023/05/24 09:11:24;;;;;;;8.13;4.63;;;16.70;47.20;;;;;;5015889;28;20458;-85
2023/05/24 09:13:50;;;;;;;6.20;4.70;;;16.70;46.60;;;;;;5015927;28;20174;-86
2023/05/24 09:16:16;;;;;;;10.60;4.90;;;16.80;45.60;;;;;;5015822;28;20284;-86
2023/05/24 09:18:42;;;;;;;8.73;4.93;;;16.60;45.50;;;;;;5016903;28;20226;-86
2023/05/24 09:21:09;;;;;;;9.60;5.20;;;16.50;46.30;;;;;;5016377;28;20301;-87
2023/05/24 09:23:35;;;;;;;14.13;4.90;;;16.30;47.20;;;;;;5015038;28;20174;-88
2023/05/24 09:26:06;;;;;;;12.03;4.43;;;16.30;47.60;;;;;;5015366;28;20190;-86
2023/05/24 09:28:32;;;;;;;9.67;4.77;;;16.00;48.70;;;;;;5011750;28;20187;-86
2023/05/24 09:31:02;;;;;;;8.23;4.90;;;16.30;47.30;;;;;;5007118;28;20228;-86
2023/05/24 09:33:31;;;;;;;9.47;4.77;;;16.50;45.50;;;;;;5015460;28;20231;-87
2023/05/24 09:35:58;;;;;;;9.97;4.70;;;16.80;45.40;;;;;;5015411;28;20205;-83
2023/05/24 09:38:27;;;;;;;10.23;5.30;;;16.80;39.80;;;;;;5009528;28;20202;-86
2023/05/24 09:41:00;;;;;;;8.03;4.73;;;16.90;40.70;;;;;;5001626;28;20198;-86
2023/05/24 09:43:25;;;;;;;7.80;4.77;;;17.40;42.00;;;;;;4998207;28;20854;-86
2023/05/24 09:45:52;;;;;;;9.47;4.90;;;17.70;39.90;;;;;;5016744;28;20207;-86
2023/05/24 09:48:19;;;;;;;10.83;5.20;;;17.80;39.30;;;;;;5005809;28;20273;-86
2023/05/24 09:51:02;;;;;;;8.30;4.30;;;18.10;39.80;;;;;;5018220;28;20196;-86
2023/05/24 09:53:29;;;;;;;8.88;5.10;;;18.60;38.50;;;;;;5016235;28;20185;-86
2023/05/24 09:55:55;;;;;;;6.53;4.83;;;18.60;35.90;;;;;;5016727;28;20555;-86
2023/05/24 09:58:21;;;;;;;9.82;4.43;;;18.40;35.40;;;;;;5009933;28;20200;-86
2023/05/24 10:00:47;;;;;;;6.67;4.80;;;18.40;34.90;;;;;;5005704;28;20278;-85
2023/05/24 10:03:13;;;;;;;6.80;4.80;;;18.20;35.50;;;;;;5017510;28;20186;-86
2023/05/24 10:05:43;;;;;;;6.47;5.17;;;18.40;36.80;;;;;;5018361;28;20208;-86
2023/05/24 10:08:10;;;;;;;11.47;5.70;;;18.70;37.10;;;;;;5017530;28;20195;-87
2023/05/24 10:10:36;;;;;;;4.82;4.25;;;18.80;36.00;;;;;;5015585;28;20698;-85
2023/05/24 10:13:01;;;;;;;8.35;5.10;;;18.70;34.90;;;;;;5038691;28;20242;-87
2023/05/24 10:15:28;;;;;;;7.20;4.75;;;19.00;34.30;;;;;;5038635;28;20212;-86
2023/05/24 10:17:55;;;;;;;8.57;5.22;;;18.90;34.50;;;;;;5038167;28;20658;-86
2023/05/24 10:20:22;;;;;;;6.07;4.43;;;18.70;34.00;;;;;;5036827;28;20670;-85
2023/05/24 10:22:51;;;;;;;8.10;4.57;;;19.00;34.80;;;;;;5030021;28;20202;-88
2023/05/24 10:25:21;;;;;;;8.45;5.25;;;19.10;34.80;;;;;;4999333;28;20213;-86
2023/05/24 10:27:50;;;;;;;9.82;5.22;;;19.30;35.10;;;;;;5015843;28;20196;-86
2023/05/24 10:30:36;;;;;;;5.95;4.70;;;19.40;34.20;;;;;;5018198;28;20272;-85
2023/05/24 10:33:06;;;;;;;6.97;5.28;;;19.40;34.10;;;;;;5007989;28;20190;-87
2023/05/24 10:35:36;;;;;;;8.88;5.07;;;19.90;33.20;;;;;;4999018;28;20217;-85
2023/05/24 10:38:06;;;;;;;9.98;5.10;;;20.10;32.40;;;;;;4995955;28;20209;-85
2023/05/24 10:40:32;;;;;;;7.38;5.00;;;20.20;32.00;;;;;;5003846;28;20735;-85
2023/05/24 10:42:58;;;;;;;9.43;5.18;;;20.50;31.30;;;;;;5018922;28;20301;-86
2023/05/24 10:45:24;;;;;;;7.05;4.93;;;20.00;32.20;;;;;;5017866;28;20253;-85
2023/05/24 10:47:50;;;;;;;7.80;4.97;;;20.30;32.30;;;;;;5016942;28;20189;-85
2023/05/24 10:50:17;;;;;;;8.25;5.47;;;20.00;32.00;;;;;;5015760;28;20189;-84
2023/05/24 10:52:44;;;;;;;9.43;5.85;;;20.30;31.80;;;;;;5017564;28;20193;-86
2023/05/24 10:55:12;;;;;;;7.85;5.57;;;20.60;32.20;;;;;;5017273;28;20219;-86
2023/05/24 10:57:38;;;;;;;7.13;5.10;;;21.00;30.20;;;;;;5014669;28;20189;-84
2023/05/24 11:00:19;;;;;;;13.00;6.43;;;21.00;31.00;;;;;;5017001;28;20190;-83
2023/05/24 11:02:48;;;;;;;6.47;5.28;;;20.70;30.30;;;;;;5017993;28;20204;-85
2023/05/24 11:05:15;;;;;;;9.55;5.93;;;21.20;29.80;;;;;;5019140;28;20289;-83
2023/05/24 11:07:41;;;;;;;9.85;6.05;;;21.30;29.30;;;;;;5016253;28;20194;-85
2023/05/24 11:10:28;;;;;;;8.35;5.60;;;20.90;29.40;;;;;;4998548;28;20193;-86
2023/05/24 11:13:00;;;;;;;9.52;5.70;;;20.90;30.00;;;;;;5019502;28;20431;-85
2023/05/24 11:15:27;;;;;;;7.30;5.63;;;20.50;29.80;;;;;;5037650;28;20254;-85
2023/05/24 11:18:07;;;;;;;9.18;5.22;;;20.60;30.60;;;;;;5032141;28;20614;-85
2023/05/24 11:20:37;;;;;;;9.70;5.63;;;20.80;30.70;;;;;;5015681;28;20179;-84
2023/05/24 11:23:05;;;;;;;9.95;6.18;;;21.40;30.00;;;;;;5016108;28;20224;-87
2023/05/24 11:25:32;;;;;;;14.82;8.18;;;21.70;28.70;;;;;;5014168;28;20197;-86
2023/05/24 11:28:00;;;;;;;9.73;6.55;;;21.50;28.50;;;;;;5015010;28;20196;-84
2023/05/24 11:30:25;;;;;;;8.30;5.90;;;21.20;28.60;;;;;;5016079;28;20240;-84
2023/05/24 11:32:51;;;;;;;6.88;5.88;;;21.20;29.30;;;;;;5019312;28;20182;-84
2023/05/24 11:35:18;;;;;;;12.02;5.80;;;21.70;30.00;;;;;;5017743;28;20230;-85
2023/05/24 11:37:44;;;;;;;6.78;6.13;;;21.80;30.60;;;;;;5014497;28;20674;-86
2023/05/24 11:40:10;;;;;;;9.35;6.03;;;21.90;29.40;;;;;;4996857;28;20753;-86
2023/05/24 11:42:38;;;;;;;8.70;5.88;;;21.40;30.20;;;;;;4997164;28;20217;-84
2023/05/24 11:45:08;;;;;;;7.75;6.15;;;21.80;29.80;;;;;;5007996;28;20219;-84
2023/05/24 11:47:37;;;;;;;16.20;8.48;;;22.10;28.90;;;;;;5014976;28;20183;-86
2023/05/24 11:50:04;;;;;;;43.63;9.90;;;22.00;29.30;;;;;;5016832;28;20189;-85
2023/05/24 11:52:30;;;;;;;6.93;5.70;;;22.00;29.80;;;;;;5016912;28;20269;-86
2023/05/24 11:54:55;;;;;;;9.27;6.40;;;22.30;29.20;;;;;;5020393;28;20227;-86
2023/05/24 11:57:51;;;;;;;8.88;6.53;;;22.10;28.70;;;;;;5012461;28;20273;-86
2023/05/24 12:00:24;;;;;;;8.43;7.32;;;22.00;28.80;;;;;;5000016;28;20193;-85
2023/05/24 12:02:49;;;;;;;9.85;8.48;;;22.90;28.30;;;;;;5001336;28;20186;-85
2023/05/24 12:05:18;;;;;;;9.38;8.43;;;23.20;28.60;;;;;;5000827;28;20248;-86
2023/05/24 12:07:47;;;;;;;8.95;8.18;;;23.30;28.70;;;;;;5000225;28;20213;-87
2023/05/24 12:10:16;;;;;;;8.77;8.07;;;23.70;28.20;;;;;;4998379;28;20184;-88
2023/05/24 12:12:46;;;;;;;12.82;8.65;;;23.50;28.20;;;;;;5016740;28;20181;-88
2023/05/24 12:15:13;;;;;;;9.23;8.30;;;23.40;28.50;;;;;;5037515;28;20234;-87
2023/05/24 12:17:40;;;;;;;11.32;8.02;;;23.30;28.50;;;;;;5026537;28;20309;-88
2023/05/24 12:20:08;;;;;;;9.10;8.30;;;23.70;29.40;;;;;;5015771;28;20193;-87
2023/05/24 12:22:34;;;;;;;9.82;8.50;;;23.40;28.50;;;;;;5017805;28;20197;-88
2023/05/24 12:25:02;;;;;;;9.50;8.75;;;23.20;28.70;;;;;;5015673;28;20212;-86
2023/05/24 12:27:30;;;;;;;9.07;8.27;;;22.90;29.00;;;;;;5015120;28;20213;-87
2023/05/24 12:29:55;;;;;;;9.80;8.82;;;23.10;29.00;;;;;;5013505;28;20200;-88
2023/05/24 12:32:21;;;;;;;9.95;8.70;;;23.30;28.20;;;;;;5017189;28;20181;-88
2023/05/24 12:34:49;;;;;;;9.98;8.93;;;23.10;28.60;;;;;;5015912;28;20206;-87
2023/05/24 12:37:17;;;;;;;9.73;8.82;;;22.80;28.50;;;;;;5012307;28;20349;-88
2023/05/24 12:39:42;;;;;;;8.75;8.10;;;22.90;29.00;;;;;;5010383;28;20187;-87
2023/05/24 12:42:10;;;;;;;8.90;8.10;;;22.90;29.50;;;;;;5016420;28;20196;-87
2023/05/24 12:44:37;;;;;;;9.88;8.82;;;23.40;28.40;;;;;;5016253;28;20263;-87